Time;durP1;ratioP1;P1;durP2;ratioP2;P2;SDS_P1;SDS_P2;PMS_P1;PMS_P2;Temp;Humidity;BMP_temperature;BMP_pressure;BME280_temperature;BME280_humidity;BME280_pressure;Samples;Min_cycle;Max_cycle;Signal;HPM_P1;HPM_P2
2022/04/03 21:02:30;;;;;;;14.10;12.77;;;0.80;99.90;;;;;;5130111;27;20875;-82
2022/04/03 21:04:57;;;;;;;14.90;13.43;;;0.80;99.90;;;;;;5133418;27;20618;-83
2022/04/03 21:07:23;;;;;;;14.00;12.73;;;0.70;99.90;;;;;;5122281;27;20654;-82
2022/04/03 21:09:50;;;;;;;15.17;13.70;;;0.90;99.90;;;;;;5127917;27;20620;-82
2022/04/03 21:12:18;;;;;;;14.90;13.53;;;0.80;99.90;;;;;;5126217;27;21028;-84
2022/04/03 21:14:44;;;;;;;14.43;13.03;;;0.70;99.90;;;;;;5127133;27;20628;-83
2022/04/03 21:17:11;;;;;;;14.23;12.93;;;0.70;99.90;;;;;;5120925;27;21211;-84
2022/04/03 21:19:39;;;;;;;14.47;13.27;;;0.30;99.90;;;;;;5130056;27;20627;-84
2022/04/03 21:22:06;;;;;;;13.57;12.33;;;0.70;99.90;;;;;;5121620;27;20613;-83
2022/04/03 21:24:33;;;;;;;12.90;11.70;;;0.70;99.90;;;;;;5127420;27;20626;-83
2022/04/03 21:26:59;;;;;;;14.10;12.90;;;0.60;99.90;;;;;;5125763;27;20705;-82
2022/04/03 21:29:26;;;;;;;13.27;12.03;;;0.60;99.90;;;;;;5124378;27;20589;-82
2022/04/03 21:31:53;;;;;;;12.93;11.83;;;0.80;99.90;;;;;;5126390;27;20653;-83
2022/04/03 21:34:20;;;;;;;13.07;11.90;;;0.60;99.90;;;;;;5124552;27;20614;-82
2022/04/03 21:36:48;;;;;;;13.20;12.20;;;0.70;99.90;;;;;;5123282;27;20624;-82
2022/04/03 21:39:15;;;;;;;12.63;11.53;;;0.40;99.90;;;;;;5129361;27;20632;-83
2022/04/03 21:41:41;;;;;;;13.73;12.33;;;0.50;99.90;;;;;;5124024;27;21240;-81
2022/04/03 21:44:09;;;;;;;13.63;12.33;;;0.50;99.90;;;;;;5127884;27;20708;-82
2022/04/03 21:46:36;;;;;;;11.97;10.97;;;0.50;99.90;;;;;;5123612;27;20628;-83
2022/04/03 21:49:04;;;;;;;13.27;12.00;;;0.50;99.90;;;;;;5123522;27;20664;-84
2022/04/03 21:51:31;;;;;;;12.50;11.40;;;0.70;99.90;;;;;;5129961;27;20997;-83
2022/04/03 21:53:59;;;;;;;12.47;11.37;;;0.70;99.90;;;;;;5123247;27;21002;-83
2022/04/03 21:56:26;;;;;;;12.90;11.80;;;0.50;99.90;;;;;;5125107;27;20618;-83
2022/04/03 21:58:53;;;;;;;12.53;11.43;;;0.70;99.90;;;;;;5131829;27;20650;-83
2022/04/03 22:01:20;;;;;;;12.60;11.40;;;0.40;99.90;;;;;;5126774;27;20767;-84
2022/04/03 22:03:47;;;;;;;11.63;10.60;;;0.60;99.90;;;;;;5125159;27;20667;-83
2022/04/03 22:06:14;;;;;;;12.30;11.33;;;0.10;99.90;;;;;;5130544;27;20627;-84
2022/04/03 22:08:42;;;;;;;11.40;10.30;;;0.50;99.90;;;;;;5122706;27;20627;-84
2022/04/03 22:11:10;;;;;;;12.90;11.80;;;0.30;99.90;;;;;;5131328;27;20683;-84
2022/04/03 22:13:38;;;;;;;11.80;10.80;;;0.30;99.90;;;;;;5110735;27;20620;-84
2022/04/03 22:16:05;;;;;;;12.33;11.23;;;0.40;99.90;;;;;;5111165;27;20629;-84
2022/04/03 22:18:32;;;;;;;12.13;11.03;;;0.30;99.90;;;;;;5111108;27;20629;-82
2022/04/03 22:20:59;;;;;;;12.40;11.30;;;0.30;99.90;;;;;;5113068;27;20647;-84
2022/04/03 22:23:26;;;;;;;12.37;11.37;;;0.50;99.90;;;;;;5104881;27;21212;-84
2022/04/03 22:25:52;;;;;;;11.80;10.53;;;0.40;99.90;;;;;;5115289;27;20631;-84
2022/04/03 22:28:21;;;;;;;12.70;11.50;;;-0.20;99.90;;;;;;5110006;27;20662;-83
2022/04/03 22:30:48;;;;;;;11.60;10.57;;;0.20;99.90;;;;;;5109080;27;20685;-83
2022/04/03 22:33:16;;;;;;;13.47;12.30;;;0.20;99.90;;;;;;5112503;27;21210;-83
2022/04/03 22:35:43;;;;;;;13.20;12.10;;;0.40;99.90;;;;;;5113503;27;20688;-83
2022/04/03 22:38:11;;;;;;;12.30;11.30;;;0.10;99.90;;;;;;5111824;27;20656;-83
2022/04/03 22:40:37;;;;;;;12.53;11.53;;;0.30;99.90;;;;;;5113839;27;20654;-84
2022/04/03 22:43:04;;;;;;;13.50;12.13;;;0.10;99.90;;;;;;5108723;27;20624;-83
2022/04/03 22:45:33;;;;;;;14.43;13.13;;;0.10;99.90;;;;;;5108827;27;20647;-83
2022/04/03 22:47:59;;;;;;;12.63;11.43;;;0.10;99.90;;;;;;5109764;27;20992;-83
2022/04/03 22:50:27;;;;;;;12.83;11.53;;;0.10;99.90;;;;;;5106766;27;20665;-83
2022/04/03 22:52:53;;;;;;;12.60;11.40;;;0.10;99.90;;;;;;5106796;27;21025;-83
2022/04/03 22:55:20;;;;;;;13.67;12.37;;;0.10;99.90;;;;;;5106101;27;20634;-83
2022/04/03 22:57:47;;;;;;;12.63;11.63;;;0.20;99.90;;;;;;5106390;27;20629;-84
2022/04/03 23:00:17;;;;;;;12.80;11.60;;;-0.10;99.90;;;;;;5109456;27;20655;-83
2022/04/03 23:02:46;;;;;;;14.67;12.20;;;-0.10;99.90;;;;;;5110502;27;21059;-83
2022/04/03 23:05:13;;;;;;;13.73;12.17;;;-0.10;99.90;;;;;;5110535;27;20642;-83
2022/04/03 23:07:41;;;;;;;13.27;12.17;;;0.00;99.90;;;;;;5110146;27;21208;-83
2022/04/03 23:10:09;;;;;;;14.83;13.37;;;-0.40;99.90;;;;;;5112766;27;20663;-83
2022/04/03 23:12:36;;;;;;;14.57;12.43;;;-0.20;99.90;;;;;;5109699;27;20675;-83
2022/04/03 23:15:04;;;;;;;14.33;12.67;;;0.00;99.90;;;;;;5108210;27;20630;-84
2022/04/03 23:17:31;;;;;;;13.90;12.60;;;0.10;99.90;;;;;;5110344;27;20623;-83
2022/04/03 23:20:00;;;;;;;14.77;13.47;;;-0.20;99.90;;;;;;5111316;27;20660;-83
2022/04/03 23:22:27;;;;;;;16.43;14.90;;;-0.10;99.90;;;;;;5107229;27;20629;-83
2022/04/03 23:24:54;;;;;;;15.27;13.97;;;-0.20;99.90;;;;;;5110490;27;20660;-83
2022/04/03 23:27:21;;;;;;;15.20;13.63;;;0.00;99.90;;;;;;5106578;27;20634;-83
2022/04/03 23:29:48;;;;;;;14.53;13.23;;;-0.30;99.90;;;;;;5106331;27;20676;-84
2022/04/03 23:32:14;;;;;;;15.77;14.27;;;-0.10;99.90;;;;;;5115185;27;20658;-83
2022/04/03 23:34:41;;;;;;;15.03;13.80;;;-0.20;99.90;;;;;;5107031;27;20628;-82
2022/04/03 23:37:09;;;;;;;16.07;14.77;;;-0.10;99.90;;;;;;5110606;27;20694;-82
2022/04/03 23:39:37;;;;;;;14.60;13.30;;;-0.20;99.90;;;;;;5110619;27;20666;-82
2022/04/03 23:42:04;;;;;;;15.07;13.67;;;-0.20;99.90;;;;;;5110325;27;20981;-84
2022/04/03 23:44:31;;;;;;;16.70;14.93;;;-0.30;99.90;;;;;;5101951;27;20996;-82
2022/04/03 23:46:58;;;;;;;17.53;14.23;;;-0.30;99.90;;;;;;5113087;27;20624;-81
2022/04/03 23:49:24;;;;;;;14.67;13.23;;;-0.10;99.90;;;;;;5107162;27;20625;-81
2022/04/03 23:51:51;;;;;;;14.13;12.93;;;-0.70;99.90;;;;;;5110460;27;21006;-82
2022/04/03 23:54:19;;;;;;;14.70;13.40;;;-0.30;99.90;;;;;;5106414;27;20624;-82
2022/04/03 23:56:46;;;;;;;13.73;12.43;;;-0.20;99.90;;;;;;5105946;27;20639;-82
2022/04/03 23:59:14;;;;;;;15.40;13.90;;;-0.40;99.90;;;;;;5113204;27;20613;-82
